Washington Dulles International Airport
KIAD : now visible

Airfield :











YOU CAN JOIN US ON...

 
LOGIN :

Register | Disclaimer

   EN    FR    IT 

 









Legend :    VFR   Marginal VFR   IFR   Intensive IFR   Very Intensive IFR
Visi :
Ceiling :
>= 8 km
>= 3000ft
5 to 8 km
1000 to 3000 ft
1500m to 5 km
500 to 1000 ft
800 to 1500m
200 to 500 ft
< 800m
< 200 ft
Symbols :   Thunderstorms  Fog  Heavy snow  Heavy precipitations  Wind > 20 kt






- Airport Elevation : 312 ft
- IATA code : IAD


KIAD - Washington Dulles International

CURRENT METAR :
  • 211952Z 29022G38KT 10SM FEW055 11/M03 A2980 RMK AO2 PK WND 30043/1938 SLP091 T01111028

EXPIRED METARs :
  • 211852Z 30024G40KT 10SM FEW070 FEW140 12/M02 A2979 RMK AO2 PK WND 31043/1816 SLP086 T01171017
  • 211752Z 31024G36KT 10SM SCT065 BKN120 11/M01 A2977 RMK AO2 PK WND 33037/1654 SLP080 T01111006 10172 20106 51023

TAF KIAD
Valid from the 21 at 19:00 until the 23 at 00:00 UTC


211848Z 2119/2224 30018G38KT P6SM BKN070
FM220300 30012G24KT P6SM FEW250
FM220800 28006KT P6SM FEW250
FM221300 29011G22KT P6SM SCT200
FM221600 29015G29KT P6SM SCT090
KZDC FIR / North America



MET'MAP, your aeronautical weather chart ! - Copyright ORBIFLY December 2007 - Disclaimer

ORBIFLY MET'MAP TEAM :

Programming & Development : Alexandra Zaïnal
Concept & original design : Baudouin d'Aumeries
Assistance for programming : Marc-Olivier Méhu
Technical & hardware support : Manuel Goepfert

Contact : metmap@orbifly.com




SOURCES & CREDITS :

   NOAA       Earth
Advisory